Time;durP1;ratioP1;P1;durP2;ratioP2;P2;SDS_P1;SDS_P2;PMS_P1;PMS_P2;Temp;Humidity;BMP_temperature;BMP_pressure;BME280_temperature;BME280_humidity;BME280_pressure;Samples;Min_cycle;Max_cycle;Signal;HPM_P1;HPM_P2
2021/07/14 00:00:45;;;;;;;21.87;18.80;;;;;;;19.25;90.97;101077.75;5016192;28;20229;-72
2021/07/14 00:03:10;;;;;;;21.23;19.10;;;;;;;19.25;91.24;101091.34;5014067;28;20181;-72
2021/07/14 00:05:38;;;;;;;21.50;19.20;;;;;;;19.13;90.95;101048.78;5010418;28;20658;-71
2021/07/14 00:08:03;;;;;;;21.17;18.70;;;;;;;19.37;90.82;101083.91;5006891;28;20584;-72
2021/07/14 00:10:32;;;;;;;19.83;17.87;;;;;;;19.39;91.00;101092.66;5012598;28;20439;-71
2021/07/14 00:13:06;;;;;;;20.23;17.40;;;;;;;19.16;90.90;101061.88;5014425;28;20211;-71
2021/07/14 00:23:35;;;;;;;18.80;16.77;;;;;;;19.45;90.43;101091.63;5012575;28;20872;-71
2021/07/14 00:26:00;;;;;;;22.00;17.67;;;;;;;19.45;89.98;101079.94;5012568;28;20485;-71
2021/07/14 00:28:26;;;;;;;17.90;16.00;;;;;;;19.11;90.22;101036.50;5016099;28;20447;-71
2021/07/14 00:30:55;;;;;;;18.30;16.10;;;;;;;19.22;90.28;101042.91;5014750;28;20454;-71
2021/07/14 00:33:21;;;;;;;18.30;16.40;;;;;;;19.22;90.13;101043.72;5018336;28;20200;-71
2021/07/14 00:35:47;;;;;;;16.97;15.37;;;;;;;19.45;90.33;101091.63;5022588;28;20892;-71
2021/07/14 00:38:12;;;;;;;22.43;17.10;;;;;;;18.99;90.34;101024.94;5017300;28;20443;-72
2021/07/14 00:40:38;;;;;;;17.50;15.77;;;;;;;18.92;90.79;101011.53;5018653;28;20565;-71
2021/07/14 00:43:04;;;;;;;22.23;17.90;;;;;;;18.98;90.64;101024.09;5018154;28;20192;-71
2021/07/14 00:45:29;;;;;;;19.53;17.53;;;;;;;19.42;90.64;101081.25;5014710;28;20266;-72
2021/07/14 00:47:57;;;;;;;18.07;16.03;;;;;;;19.40;91.07;101083.41;5016880;28;20656;-72
2021/07/14 00:50:23;;;;;;;16.93;15.23;;;;;;;19.16;91.24;101059.16;5021633;28;20267;-71
2021/07/14 00:52:49;;;;;;;17.53;15.70;;;;;;;19.06;91.15;101026.38;5019042;28;20629;-71
2021/07/14 00:55:14;;;;;;;16.73;15.13;;;;;;;19.43;91.02;101085.63;5018562;28;20525;-71
2021/07/14 00:57:40;;;;;;;17.60;15.40;;;;;;;19.18;90.80;101037.97;5021627;28;20185;-72
2021/07/14 01:00:08;;;;;;;19.87;17.30;;;;;;;19.35;90.88;101078.72;5017390;28;20192;-72
2021/07/14 01:02:34;;;;;;;19.90;17.10;;;;;;;19.38;91.07;101075.50;5017703;28;20339;-71
2021/07/14 01:05:06;;;;;;;19.93;17.10;;;;;;;19.01;90.67;101029.03;5018377;28;20525;-71
2021/07/14 01:07:53;;;;;;;17.33;15.63;;;;;;;19.50;90.55;101088.16;5018050;28;20200;-71
2021/07/14 01:10:33;;;;;;;23.30;19.90;;;;;;;19.19;90.91;101068.72;5019526;28;20442;-71
2021/07/14 01:13:12;;;;;;;16.90;15.20;;;;;;;19.09;90.76;101038.63;5019737;28;20617;-71
2021/07/14 01:15:48;;;;;;;19.93;17.80;;;;;;;18.99;90.71;101033.91;5019174;28;20438;-71
2021/07/14 01:18:32;;;;;;;19.50;17.03;;;;;;;19.35;90.81;101077.88;5013111;28;20526;-71
2021/07/14 01:21:03;;;;;;;21.33;16.97;;;;;;;19.37;90.89;101082.00;5015801;28;20891;-71
2021/07/14 01:23:40;;;;;;;18.30;16.43;;;;;;;19.31;91.63;101084.91;5014374;28;20475;-71
2021/07/14 01:26:17;;;;;;;22.13;17.40;;;;;;;19.12;91.25;101065.31;5015737;28;20531;-71
2021/07/14 01:28:47;;;;;;;17.17;15.30;;;;;;;18.75;91.70;100992.53;5020234;28;20452;-71
2021/07/14 01:31:20;;;;;;;20.00;16.50;;;;;;;19.39;91.12;101081.75;5020155;28;20525;-71
2021/07/14 01:33:50;;;;;;;20.23;17.10;;;;;;;19.30;91.29;101078.66;5018238;28;20448;-71
2021/07/14 01:36:19;;;;;;;21.17;17.90;;;;;;;18.99;91.53;101023.03;5014801;28;20474;-71
2021/07/14 01:38:46;;;;;;;19.10;17.00;;;;;;;19.29;91.40;101076.16;5019350;28;20932;-71
2021/07/14 01:41:14;;;;;;;21.43;18.20;;;;;;;18.92;91.73;101023.22;5018646;28;20459;-71
2021/07/14 01:43:47;;;;;;;18.17;16.27;;;;;;;19.30;91.74;101081.38;5018250;28;20446;-71
2021/07/14 01:46:14;;;;;;;19.57;17.27;;;;;;;18.70;91.29;100971.50;5018200;28;20565;-72
2021/07/14 01:48:42;;;;;;;18.17;16.43;;;;;;;18.72;91.66;100995.72;5014999;28;20494;-71
2021/07/14 01:51:09;;;;;;;19.47;17.43;;;;;;;18.85;91.48;101000.81;5015277;28;20483;-71
2021/07/14 01:53:36;;;;;;;20.17;16.40;;;;;;;19.31;91.29;101071.31;5016565;28;20447;-71
2021/07/14 01:56:05;;;;;;;18.97;16.97;;;;;;;19.30;91.56;101061.53;5016575;28;20466;-71
2021/07/14 01:58:32;;;;;;;18.73;16.73;;;;;;;19.31;91.02;101046.84;5015464;28;20521;-72
2021/07/14 02:00:58;;;;;;;23.77;20.07;;;;;;;18.67;91.12;100963.03;5017718;28;21674;-71
2021/07/14 02:05:58;;;;;;;24.57;20.67;;;;;;;19.26;91.15;101050.31;5016497;28;20924;-71
2021/07/14 02:08:24;;;;;;;25.20;19.67;;;;;;;18.96;91.15;101008.03;5016387;28;20496;-70
2021/07/14 02:10:51;;;;;;;23.23;20.33;;;;;;;19.41;90.99;101064.13;5015552;28;20480;-72
2021/07/14 02:13:18;;;;;;;25.37;21.30;;;;;;;19.42;90.77;101062.22;5015647;28;20192;-72
2021/07/14 02:15:44;;;;;;;24.00;21.00;;;;;;;19.01;91.05;101006.47;5012437;28;20446;-72
2021/07/14 02:18:13;;;;;;;25.27;22.63;;;;;;;19.10;91.31;101011.22;5014379;28;20448;-72
2021/07/14 02:20:39;;;;;;;23.63;21.03;;;;;;;19.15;91.52;101022.16;5014882;28;20473;-71
2021/07/14 02:23:08;;;;;;;23.87;21.37;;;;;;;18.89;91.92;100990.25;5016658;28;21035;-71
2021/07/14 02:25:34;;;;;;;25.17;20.90;;;;;;;19.00;91.70;101000.19;5015095;28;20939;-71
2021/07/14 02:28:01;;;;;;;24.33;20.57;;;;;;;19.13;91.50;101002.56;5016491;28;20561;-71
2021/07/14 02:30:26;;;;;;;25.50;20.63;;;;;;;18.87;91.88;100973.38;5017247;28;20279;-72
2021/07/14 02:33:00;;;;;;;22.97;20.57;;;;;;;18.98;92.05;100988.78;5016869;28;20562;-71
2021/07/14 02:35:28;;;;;;;25.20;20.43;;;;;;;19.14;91.59;101011.53;5016069;28;20187;-71
2021/07/14 02:38:11;;;;;;;21.10;18.50;;;;;;;19.21;91.33;101023.06;5014275;28;20454;-71
2021/07/14 02:40:53;;;;;;;19.90;17.50;;;;;;;19.23;91.43;101029.06;5021686;28;20470;-72
2021/07/14 02:43:26;;;;;;;22.50;18.63;;;;;;;18.51;91.15;100908.47;5013281;28;20462;-71
2021/07/14 02:45:53;;;;;;;20.47;18.37;;;;;;;18.91;91.61;100986.22;5016701;28;20446;-72
2021/07/14 02:48:19;;;;;;;21.40;19.23;;;;;;;19.24;91.23;101032.59;5014227;28;20538;-72
2021/07/14 02:50:45;;;;;;;22.77;19.43;;;;;;;18.86;91.81;100993.47;5014603;28;20451;-71
2021/07/14 02:53:15;;;;;;;20.40;17.50;;;;;;;19.01;91.62;101001.03;5019669;28;20475;-72
2021/07/14 02:55:43;;;;;;;20.47;18.00;;;;;;;19.14;91.62;101023.22;5012762;28;20185;-72
2021/07/14 02:58:12;;;;;;;23.13;19.07;;;;;;;19.07;91.42;101000.84;5016860;28;20500;-71
2021/07/14 03:00:39;;;;;;;22.40;19.93;;;;;;;19.18;91.01;101018.13;5015229;28;20515;-72
2021/07/14 03:03:07;;;;;;;25.37;21.57;;;;;;;19.15;91.36;101022.16;5018412;28;20505;-72
2021/07/14 03:05:34;;;;;;;23.03;20.23;;;;;;;19.22;90.92;101027.41;5017090;28;20451;-71
2021/07/14 03:08:03;;;;;;;22.60;20.20;;;;;;;18.83;91.16;100980.38;5018989;28;20525;-72
2021/07/14 03:10:29;;;;;;;23.00;20.47;;;;;;;19.03;91.23;101004.31;5015608;28;20447;-71
2021/07/14 03:12:57;;;;;;;22.00;19.73;;;;;;;19.03;91.03;101001.59;5015757;28;20469;-71
2021/07/14 03:15:23;;;;;;;27.67;20.83;;;;;;;19.22;90.96;101027.41;5015665;28;20459;-72
2021/07/14 03:17:51;;;;;;;26.00;21.47;;;;;;;18.86;90.67;100972.56;5013137;28;20484;-71
2021/07/14 03:20:18;;;;;;;23.83;21.47;;;;;;;18.89;91.28;100988.38;5017894;28;20454;-72
2021/07/14 03:22:46;;;;;;;22.40;20.10;;;;;;;19.04;91.26;101017.66;5013141;28;20467;-71
2021/07/14 03:25:12;;;;;;;22.57;20.17;;;;;;;19.11;91.23;101031.06;5030416;28;20951;-71
2021/07/14 03:27:40;;;;;;;24.10;21.57;;;;;;;19.14;91.42;101034.09;5016509;28;20554;-71
2021/07/14 03:30:07;;;;;;;23.07;20.50;;;;;;;19.05;91.24;101032.88;5013795;28;20995;-71
2021/07/14 03:32:32;;;;;;;24.20;21.60;;;;;;;19.02;90.51;101006.22;5016809;28;20459;-71
2021/07/14 03:34:58;;;;;;;24.23;21.60;;;;;;;19.03;91.38;101034.22;5014450;28;20892;-72
2021/07/14 03:37:24;;;;;;;22.63;19.97;;;;;;;18.69;90.94;100977.19;5018612;28;20181;-72
2021/07/14 03:39:50;;;;;;;22.77;20.50;;;;;;;18.69;91.02;100979.91;5014928;28;20709;-71
2021/07/14 03:42:17;;;;;;;23.10;20.70;;;;;;;19.07;90.84;101035.38;5024061;28;20458;-71
2021/07/14 03:44:45;;;;;;;23.80;21.30;;;;;;;19.03;91.00;101034.22;5014907;28;20509;-71
2021/07/14 03:47:12;;;;;;;22.10;20.00;;;;;;;18.98;91.22;101024.09;5014265;28;20499;-71
2021/07/14 03:49:39;;;;;;;21.50;19.30;;;;;;;18.99;91.35;101036.63;5009832;28;20854;-71
2021/07/14 03:52:06;;;;;;;20.00;17.90;;;;;;;18.77;90.70;100989.53;5016699;28;20481;-71
2021/07/14 03:54:32;;;;;;;22.57;18.70;;;;;;;19.13;90.77;101029.75;5016175;28;20597;-70
2021/07/14 03:56:59;;;;;;;20.47;18.27;;;;;;;18.87;91.31;101009.53;5013244;28;20688;-71
2021/07/14 03:59:26;;;;;;;21.20;19.00;;;;;;;19.06;91.07;101034.53;5013626;28;20440;-71
2021/07/14 04:01:53;;;;;;;20.33;17.33;;;;;;;18.85;90.17;100984.50;5013559;28;20477;-71
2021/07/14 04:04:19;;;;;;;17.97;16.13;;;;;;;18.90;90.01;100986.47;5013129;28;20446;-72
2021/07/14 04:06:49;;;;;;;19.03;16.80;;;;;;;19.04;90.91;101033.97;5013687;28;20816;-71
2021/07/14 04:09:17;;;;;;;19.20;17.20;;;;;;;19.14;90.55;101034.09;5013965;28;20451;-71
2021/07/14 04:11:46;;;;;;;18.47;16.63;;;;;;;18.96;90.62;101013.47;5014659;28;20463;-71
2021/07/14 04:14:12;;;;;;;18.23;16.33;;;;;;;18.90;90.68;100998.16;5017705;28;20438;-71
2021/07/14 04:16:37;;;;;;;18.63;16.63;;;;;;;18.99;90.09;100995.84;5015354;28;20442;-71
2021/07/14 04:19:03;;;;;;;17.63;15.80;;;;;;;18.54;90.41;100939.72;5011144;28;20216;-71
2021/07/14 04:21:29;;;;;;;17.87;16.13;;;;;;;18.91;89.78;100988.13;5013718;28;20217;-72
2021/07/14 04:23:55;;;;;;;16.37;14.60;;;;;;;18.71;91.07;100986.72;5012977;28;20189;-72
2021/07/14 04:26:21;;;;;;;16.17;14.67;;;;;;;19.12;89.92;101022.69;5016727;28;20234;-72
2021/07/14 04:28:47;;;;;;;18.77;15.40;;;;;;;19.08;90.03;101018.78;5013354;28;21358;-72
2021/07/14 04:31:12;;;;;;;14.80;13.30;;;;;;;19.20;89.68;101019.50;5013701;28;20247;-72
2021/07/14 04:33:38;;;;;;;15.87;14.17;;;;;;;19.08;89.52;100997.03;5016941;28;20192;-71
2021/07/14 04:36:04;;;;;;;16.10;13.97;;;;;;;19.02;90.04;101000.78;5014396;28;20188;-71
2021/07/14 04:38:29;;;;;;;15.20;13.70;;;;;;;19.23;89.91;101028.22;5014991;28;20739;-72
2021/07/14 04:40:54;;;;;;;17.40;15.50;;;;;;;19.15;89.34;101005.84;5031831;28;20219;-71
2021/07/14 04:43:20;;;;;;;15.47;14.17;;;;;;;18.95;90.14;100987.38;5015283;28;20688;-71
2021/07/14 04:45:45;;;;;;;16.20;14.60;;;;;;;18.86;90.12;100983.44;5016573;28;20213;-71
2021/07/14 04:48:10;;;;;;;15.43;13.83;;;;;;;18.85;89.64;100973.63;5014329;28;20619;-71
2021/07/14 04:50:36;;;;;;;15.80;14.13;;;;;;;19.29;89.73;101035.38;5017291;28;20562;-72
2021/07/14 04:53:02;;;;;;;16.23;14.60;;;;;;;18.83;89.32;100959.47;5015628;28;20805;-71
2021/07/14 04:55:28;;;;;;;15.70;14.10;;;;;;;18.91;89.65;100969.09;5012440;28;20641;-71
2021/07/14 04:57:53;;;;;;;15.93;14.23;;;;;;;19.03;89.65;100988.81;5014443;28;20450;-71
2021/07/14 05:00:19;;;;;;;15.53;13.93;;;;;;;19.17;89.99;101014.56;5010392;28;20287;-71
2021/07/14 05:02:45;;;;;;;14.53;13.13;;;;;;;19.19;90.32;101019.75;5013490;28;20212;-71
2021/07/14 05:05:15;;;;;;;15.00;13.43;;;;;;;19.11;90.39;101003.88;5017748;28;20442;-71
2021/07/14 05:07:40;;;;;;;15.43;13.97;;;;;;;18.87;91.08;101001.38;5016386;28;20992;-71
2021/07/14 05:10:07;;;;;;;19.40;14.63;;;;;;;19.26;90.13;101025.81;5014902;28;20439;-71
2021/07/14 05:12:33;;;;;;;17.60;14.47;;;;;;;18.92;90.02;100962.59;5012975;28;20283;-71
2021/07/14 05:14:58;;;;;;;15.23;13.87;;;;;;;19.32;90.26;101027.53;5015104;28;20443;-72
2021/07/14 05:17:23;;;;;;;16.20;14.53;;;;;;;19.26;90.39;101025.81;5014621;28;20227;-71
2021/07/14 05:19:49;;;;;;;16.57;15.07;;;;;;;19.20;90.83;101013.25;5013647;28;20185;-71
2021/07/14 05:22:14;;;;;;;15.70;13.93;;;;;;;19.04;90.77;100981.50;5019495;28;21047;-72
2021/07/14 05:24:41;;;;;;;16.90;15.10;;;;;;;19.18;90.88;101004.53;5019140;28;20227;-72
2021/07/14 05:27:06;;;;;;;17.60;15.93;;;;;;;18.80;90.74;100957.25;5016048;28;20216;-72
2021/07/14 05:29:32;;;;;;;19.30;17.30;;;;;;;19.28;90.62;101025.59;5013678;28;20470;-72
2021/07/14 05:31:57;;;;;;;17.10;15.30;;;;;;;19.41;90.25;101030.63;5015687;28;21092;-73
2021/07/14 05:34:23;;;;;;;18.10;16.30;;;;;;;19.38;90.45;101026.56;5013327;28;20181;-73
2021/07/14 05:36:48;;;;;;;18.53;16.63;;;;;;;19.40;90.61;101037.16;5013917;28;20181;-71
2021/07/14 05:39:14;;;;;;;17.33;15.73;;;;;;;19.20;90.27;100986.88;5017177;28;20187;-72
2021/07/14 05:41:41;;;;;;;19.00;16.30;;;;;;;19.28;90.88;101007.38;5019260;28;20513;-72
2021/07/14 05:44:08;;;;;;;16.70;15.20;;;;;;;19.30;91.41;101020.72;5015790;28;20176;-71
2021/07/14 05:46:35;;;;;;;16.40;14.77;;;;;;;19.26;90.47;100995.91;5027017;28;20483;-72
2021/07/14 05:49:03;;;;;;;19.60;17.57;;;;;;;19.31;90.15;100992.44;5016158;28;20475;-71
2021/07/14 05:51:29;;;;;;;18.90;16.03;;;;;;;19.60;90.50;101047.47;5018109;28;20457;-72
2021/07/14 05:53:55;;;;;;;18.17;16.37;;;;;;;19.30;90.88;101001.69;5018159;28;20448;-72
2021/07/14 05:56:20;;;;;;;18.93;16.87;;;;;;;18.98;91.11;100939.84;5020470;28;20497;-71
2021/07/14 05:58:45;;;;;;;18.37;16.47;;;;;;;19.35;90.86;101001.72;5020099;28;20267;-72
2021/07/14 06:01:11;;;;;;;18.30;15.27;;;;;;;19.62;90.52;101027.09;5015786;28;20236;-71
2021/07/14 06:03:36;;;;;;;18.23;16.50;;;;;;;19.57;90.07;101020.78;5017792;28;21947;-73
2021/07/14 06:06:07;;;;;;;21.13;17.47;;;;;;;19.74;90.80;101048.75;5015783;28;20192;-72
2021/07/14 06:08:32;;;;;;;18.70;16.70;;;;;;;19.77;90.98;101055.59;5018553;28;20195;-72
2021/07/14 06:10:57;;;;;;;18.73;16.93;;;;;;;19.27;90.84;100959.50;5023289;28;20580;-72
2021/07/14 06:13:23;;;;;;;19.20;17.30;;;;;;;19.80;91.05;101044.19;5016212;28;20184;-71
2021/07/14 06:15:48;;;;;;;22.00;19.80;;;;;;;19.74;91.05;101051.47;5020161;28;20196;-71
2021/07/14 06:18:14;;;;;;;18.77;16.97;;;;;;;19.74;91.04;101040.59;5014479;28;20185;-72
2021/07/14 06:20:41;;;;;;;18.87;17.07;;;;;;;19.74;91.05;101035.16;5030553;28;20275;-71
2021/07/14 06:23:07;;;;;;;18.70;17.00;;;;;;;19.83;90.77;101049.94;5028283;28;20197;-71
2021/07/14 06:25:33;;;;;;;20.07;16.90;;;;;;;19.85;91.10;101047.81;5030157;28;20441;-72
2021/07/14 06:28:00;;;;;;;18.27;16.47;;;;;;;19.68;91.49;101032.63;5013278;28;20258;-72
2021/07/14 06:30:26;;;;;;;17.87;16.17;;;;;;;19.84;91.51;101054.31;5018432;28;20191;-72
2021/07/14 06:32:52;;;;;;;17.43;15.73;;;;;;;19.81;91.37;101037.66;5018073;28;20458;-72
2021/07/14 06:35:18;;;;;;;19.37;17.50;;;;;;;19.51;91.29;100992.69;5014878;28;20267;-71
2021/07/14 06:37:50;;;;;;;18.73;16.90;;;;;;;19.34;91.33;100954.69;5014585;28;20557;-71
2021/07/14 06:40:15;;;;;;;17.70;15.97;;;;;;;19.84;90.80;101027.09;5016410;28;20435;-72
2021/07/14 06:42:41;;;;;;;19.07;16.10;;;;;;;19.74;90.80;101007.13;5016504;28;20444;-72
2021/07/14 06:45:08;;;;;;;19.00;17.10;;;;;;;20.13;90.30;101053.25;5032786;28;20203;-72
2021/07/14 06:47:34;;;;;;;18.60;16.70;;;;;;;19.89;90.88;101022.78;5016106;28;21541;-72
2021/07/14 06:49:59;;;;;;;18.00;16.30;;;;;;;19.83;90.27;101005.59;5018473;28;20443;-72
2021/07/14 06:52:25;;;;;;;18.40;16.50;;;;;;;19.69;89.98;100963.53;5016036;28;20193;-72
2021/07/14 06:54:50;;;;;;;17.17;15.77;;;;;;;19.61;90.29;100962.03;5018897;28;20196;-73
2021/07/14 06:57:16;;;;;;;17.47;15.67;;;;;;;19.83;90.22;100978.38;5015091;28;20188;-72
2021/07/14 06:59:41;;;;;;;18.70;16.80;;;;;;;20.05;90.60;101022.69;5023917;28;20275;-73
2021/07/14 07:02:07;;;;;;;17.03;15.30;;;;;;;20.28;90.30;101056.13;5020601;28;20294;-72
2021/07/14 07:04:32;;;;;;;18.13;16.23;;;;;;;20.35;90.20;101062.19;5019386;28;20185;-73
2021/07/14 07:06:58;;;;;;;17.27;15.53;;;;;;;20.05;89.96;101011.81;5018596;28;20204;-72
2021/07/14 07:09:26;;;;;;;18.47;16.57;;;;;;;20.20;90.50;101037.53;5020722;28;20242;-73
2021/07/14 07:11:52;;;;;;;16.57;15.00;;;;;;;20.33;90.44;101059.69;5015338;28;20451;-73
2021/07/14 07:14:18;;;;;;;17.03;15.23;;;;;;;20.14;89.72;101012.16;5020642;28;20550;-72
2021/07/14 07:16:44;;;;;;;16.87;15.37;;;;;;;20.29;89.98;101035.97;5015593;28;20180;-73
2021/07/14 07:19:09;;;;;;;17.57;15.80;;;;;;;20.02;90.36;100997.88;5016767;28;20709;-72
2021/07/14 07:21:35;;;;;;;17.37;15.67;;;;;;;20.36;90.86;101043.94;5016884;28;20311;-72
2021/07/14 07:24:01;;;;;;;17.60;15.77;;;;;;;20.26;90.47;101025.59;5015500;28;20228;-72
2021/07/14 07:26:27;;;;;;;16.70;15.10;;;;;;;20.36;90.41;101047.47;5016660;28;20705;-72
2021/07/14 07:29:03;;;;;;;19.30;17.30;;;;;;;20.32;90.90;101046.34;5013185;28;20454;-72
2021/07/14 07:31:30;;;;;;;18.50;16.77;;;;;;;20.27;90.67;101043.59;5014194;28;20211;-74
2021/07/14 07:33:55;;;;;;;18.10;16.50;;;;;;;20.16;90.92;101039.13;5008601;28;20444;-73
2021/07/14 07:36:20;;;;;;;16.27;14.67;;;;;;;19.99;91.21;101015.56;5013231;28;20931;-73
2021/07/14 07:38:46;;;;;;;17.50;15.80;;;;;;;19.88;91.41;101000.19;5002640;28;20184;-73
2021/07/14 07:41:12;;;;;;;17.63;15.97;;;;;;;20.37;90.76;101051.84;5016665;28;20215;-73
2021/07/14 07:43:37;;;;;;;17.80;16.07;;;;;;;19.88;90.99;100980.31;5014718;28;20184;-73
2021/07/14 07:46:04;;;;;;;18.37;16.47;;;;;;;20.27;91.07;101038.13;5012422;28;20466;-73
2021/07/14 07:48:29;;;;;;;17.40;15.80;;;;;;;20.17;91.32;101027.16;5013127;28;20238;-73
2021/07/14 07:50:55;;;;;;;18.43;16.50;;;;;;;20.17;90.67;101008.09;5014906;28;20439;-72
2021/07/14 07:53:21;;;;;;;18.67;16.87;;;;;;;20.33;90.80;101027.00;5012541;28;20698;-73
2021/07/14 07:55:48;;;;;;;16.43;14.93;;;;;;;20.30;90.34;101032.16;5016376;28;20490;-73
2021/07/14 07:58:14;;;;;;;15.97;14.33;;;;;;;20.29;90.38;101008.75;5015900;28;20428;-72
2021/07/14 08:00:40;;;;;;;19.93;17.00;;;;;;;20.38;90.57;101034.41;5014800;28;20447;-73
2021/07/14 08:03:06;;;;;;;17.70;16.00;;;;;;;20.39;90.74;101025.16;5016722;28;20520;-72
2021/07/14 08:05:32;;;;;;;19.27;17.17;;;;;;;20.40;91.02;101029.53;5013023;28;21077;-72
2021/07/14 08:07:58;;;;;;;16.90;15.30;;;;;;;20.19;90.68;100986.84;5014133;28;20468;-73
2021/07/14 08:10:23;;;;;;;16.00;14.50;;;;;;;20.06;90.39;100941.81;5014904;28;20828;-73
2021/07/14 08:12:49;;;;;;;17.67;15.97;;;;;;;20.62;90.14;101020.47;5017503;28;20281;-73
2021/07/14 08:15:14;;;;;;;17.23;14.73;;;;;;;20.12;89.56;100929.06;5011123;28;20294;-73
2021/07/14 08:17:40;;;;;;;17.70;15.83;;;;;;;20.73;89.13;101014.00;5010074;28;20637;-73
2021/07/14 08:20:08;;;;;;;17.83;16.00;;;;;;;20.82;89.05;101009.69;5010111;28;20184;-73
2021/07/14 08:22:33;;;;;;;18.50;16.70;;;;;;;20.73;88.64;101001.19;5011338;28;20661;-73
2021/07/14 08:24:58;;;;;;;17.13;15.47;;;;;;;20.92;88.93;100998.06;5009940;28;20436;-74
2021/07/14 08:27:25;;;;;;;17.77;16.00;;;;;;;21.04;88.68;101016.94;5014698;28;20413;-73
2021/07/14 08:29:52;;;;;;;16.77;15.20;;;;;;;20.74;88.30;100963.84;5012833;28;20191;-72
2021/07/14 08:32:17;;;;;;;16.07;12.70;;;;;;;20.93;89.00;100984.16;5014544;28;20517;-72
2021/07/14 08:34:43;;;;;;;14.77;13.43;;;;;;;21.03;88.77;100990.72;5010730;28;20970;-72
2021/07/14 08:37:08;;;;;;;14.50;13.10;;;;;;;20.78;88.07;100937.72;5015635;28;20191;-72
2021/07/14 08:39:34;;;;;;;14.43;13.03;;;;;;;21.21;87.84;100990.28;5010854;28;20198;-72
2021/07/14 08:42:02;;;;;;;15.80;13.40;;;;;;;21.40;87.59;100999.66;5016007;28;20211;-73
2021/07/14 08:44:27;;;;;;;14.77;13.47;;;;;;;21.65;87.28;101003.56;5011191;28;20267;-72
2021/07/14 08:46:54;;;;;;;14.00;12.70;;;;;;;21.49;87.18;100977.31;5016048;28;20841;-73
2021/07/14 08:49:19;;;;;;;13.87;12.57;;;;;;;21.57;86.20;100980.34;5024069;28;20702;-73
2021/07/14 08:51:46;;;;;;;12.90;11.70;;;;;;;21.80;86.97;101002.78;5014883;28;20545;-73
2021/07/14 08:54:12;;;;;;;13.30;12.10;;;;;;;21.73;86.80;100981.22;5018949;28;20534;-72
2021/07/14 08:56:38;;;;;;;13.30;11.93;;;;;;;21.68;86.57;100978.47;5020774;28;20534;-73
2021/07/14 08:59:03;;;;;;;13.50;12.20;;;;;;;21.70;86.67;100973.56;5016613;28;20445;-72
2021/07/14 09:01:29;;;;;;;13.60;12.20;;;;;;;21.61;86.10;100943.25;5016955;28;20463;-73
2021/07/14 09:03:55;;;;;;;12.93;11.70;;;;;;;21.93;86.02;100982.31;5019457;28;20193;-72
2021/07/14 09:06:20;;;;;;;13.83;12.30;;;;;;;21.73;85.39;100953.91;5018724;28;20430;-72
2021/07/14 09:08:46;;;;;;;13.90;12.30;;;;;;;21.88;85.35;100977.69;5018205;28;20536;-72
2021/07/14 09:11:12;;;;;;;13.83;12.50;;;;;;;22.15;85.23;101010.22;5021188;28;20215;-72
2021/07/14 09:13:40;;;;;;;11.60;10.50;;;;;;;22.24;84.08;100996.88;5019060;28;20534;-73
2021/07/14 09:16:06;;;;;;;10.63;9.70;;;;;;;21.99;84.10;100932.09;5018048;28;20239;-73
2021/07/14 09:18:32;;;;;;;10.23;9.40;;;;;;;22.22;84.41;100958.09;5020070;28;20502;-73
2021/07/14 09:20:59;;;;;;;10.47;9.57;;;;;;;22.15;84.51;100941.09;5016740;28;20328;-73
2021/07/14 09:23:29;;;;;;;13.53;9.77;;;;;;;22.46;83.63;100980.19;5018119;28;20243;-73
2021/07/14 09:25:56;;;;;;;10.33;9.43;;;;;;;22.45;84.21;100992.19;5019464;28;20827;-73
2021/07/14 09:28:28;;;;;;;9.00;8.10;;;;;;;22.18;82.93;100946.88;5021252;28;20471;-73
2021/07/14 09:30:59;;;;;;;9.57;8.67;;;;;;;22.38;82.75;100984.28;5017826;28;20435;-73
2021/07/14 09:33:25;;;;;;;8.23;7.53;;;;;;;22.30;83.34;100952.03;5016589;28;21062;-73
2021/07/14 09:35:52;;;;;;;9.33;8.57;;;;;;;22.52;83.14;100990.03;5014358;28;20450;-73
2021/07/14 09:38:26;;;;;;;9.90;8.93;;;;;;;22.66;83.77;100984.81;5016507;28;20445;-73
2021/07/14 09:40:59;;;;;;;9.30;8.50;;;;;;;22.61;82.71;100988.38;5017825;28;20518;-73
2021/07/14 09:43:39;;;;;;;9.10;8.27;;;;;;;22.67;82.60;100981.78;5014766;28;20436;-73
2021/07/14 09:46:12;;;;;;;9.60;8.60;;;;;;;22.58;81.80;100958.03;5016387;28;20512;-73
2021/07/14 09:48:46;;;;;;;10.00;9.03;;;;;;;22.78;81.96;100982.59;5017472;28;20522;-72
2021/07/14 09:51:12;;;;;;;8.50;7.70;;;;;;;22.89;81.98;100983.41;5014194;28;20451;-73
2021/07/14 09:53:42;;;;;;;8.40;7.57;;;;;;;22.81;81.71;100957.44;5016181;28;20462;-73
2021/07/14 09:56:21;;;;;;;9.43;8.63;;;;;;;22.92;81.53;100980.94;5015503;28;20450;-73
2021/07/14 09:58:47;;;;;;;9.30;8.43;;;;;;;22.89;81.53;100967.81;5018662;28;20450;-73
2021/07/14 10:01:17;;;;;;;9.37;8.47;;;;;;;22.91;82.20;100983.94;5009195;28;20589;-75
2021/07/14 10:03:51;;;;;;;9.60;8.80;;;;;;;22.83;80.88;100976.31;5016812;28;20434;-74
2021/07/14 10:06:17;;;;;;;9.90;8.47;;;;;;;22.90;81.04;100980.38;5018578;28;20813;-73
2021/07/14 10:08:47;;;;;;;9.20;8.40;;;;;;;22.85;81.18;100983.13;5019210;28;20439;-73
2021/07/14 10:11:24;;;;;;;9.33;8.60;;;;;;;22.85;80.53;100995.97;5017063;28;20463;-73
2021/07/14 10:14:01;;;;;;;8.37;7.77;;;;;;;22.83;80.85;100995.47;5008450;28;20442;-73
2021/07/14 10:16:36;;;;;;;9.17;8.27;;;;;;;22.84;80.10;101002.56;5018578;28;20841;-74
2021/07/14 10:19:05;;;;;;;11.10;9.80;;;;;;;22.91;79.76;101003.06;5014233;28;20521;-73
2021/07/14 10:21:34;;;;;;;10.30;9.33;;;;;;;22.53;80.25;100934.25;5018723;28;20517;-73
2021/07/14 10:24:00;;;;;;;8.60;7.80;;;;;;;23.04;80.76;100998.97;5017255;28;20463;-73
2021/07/14 10:26:27;;;;;;;9.57;8.77;;;;;;;22.80;80.38;100964.00;5020522;28;20805;-73
2021/07/14 10:28:54;;;;;;;10.30;9.30;;;;;;;22.91;80.15;100982.03;5021619;28;20471;-73
2021/07/14 10:31:21;;;;;;;8.93;8.23;;;;;;;22.73;80.10;100956.06;5016783;28;20538;-73
2021/07/14 10:33:49;;;;;;;10.17;9.17;;;;;;;22.80;80.01;100996.81;5020375;28;20477;-74
2021/07/14 10:36:17;;;;;;;10.83;9.93;;;;;;;22.84;79.89;100997.09;5017151;28;20426;-73
2021/07/14 10:38:50;;;;;;;9.60;8.73;;;;;;;22.81;80.05;100987.50;5017589;28;20442;-73
2021/07/14 10:41:16;;;;;;;11.47;10.47;;;;;;;22.71;80.65;100988.38;5017700;28;20458;-73
2021/07/14 10:43:44;;;;;;;11.20;10.10;;;;;;;22.60;81.04;100981.28;5017409;28;20439;-73
2021/07/14 10:46:09;;;;;;;11.27;10.27;;;;;;;22.45;80.21;100964.88;5017569;28;20333;-73
2021/07/14 10:48:35;;;;;;;10.30;9.27;;;;;;;22.52;80.09;100973.63;5021385;28;21018;-72
2021/07/14 10:51:00;;;;;;;11.23;8.23;;;;;;;22.58;80.03;100988.09;5013217;28;20211;-72
2021/07/14 10:53:25;;;;;;;7.93;7.27;;;;;;;22.63;79.76;100991.66;5012613;28;20663;-73
2021/07/14 10:55:55;;;;;;;8.73;8.00;;;;;;;22.69;79.74;100995.19;5016874;28;20755;-72
2021/07/14 10:58:23;;;;;;;8.07;7.37;;;;;;;22.62;79.08;100981.78;5015775;28;20185;-73
2021/07/14 11:00:49;;;;;;;8.77;7.87;;;;;;;22.51;78.84;100988.41;5013544;28;20916;-72
2021/07/14 11:03:33;;;;;;;8.83;8.03;;;;;;;22.66;79.28;100999.31;5028178;28;20445;-74
2021/07/14 11:05:59;;;;;;;8.10;7.30;;;;;;;22.73;79.58;101005.28;5015267;28;20181;-72
2021/07/14 11:08:42;;;;;;;8.50;7.80;;;;;;;22.64;80.76;100998.75;5013866;28;20554;-72
2021/07/14 11:11:09;;;;;;;10.50;9.43;;;;;;;22.25;80.11;100941.97;5010504;28;20512;-72
2021/07/14 11:13:37;;;;;;;9.17;8.27;;;;;;;22.63;80.20;101001.78;5017592;28;20535;-73
2021/07/14 11:16:24;;;;;;;9.70;8.80;;;;;;;22.63;80.57;101016.25;5016726;28;20490;-72
2021/07/14 11:19:13;;;;;;;10.43;8.77;;;;;;;22.50;80.55;100981.28;5012652;28;20945;-72
2021/07/14 11:22:03;;;;;;;9.23;8.43;;;;;;;22.59;80.82;101004.22;5018314;28;20458;-72
2021/07/14 11:24:45;;;;;;;9.97;9.17;;;;;;;22.56;80.58;101004.78;5015870;28;20994;-72